< < Back
Terminal Aerodrome Forecast


Current Version              Previous Versions:   1  2  3  4  5  6  7  8  9  

Terminal Aerodrome Forecast

093
FTUS42 KFFC 290700 AAA
TAFATL
TAF AMD
KATL 290747Z 2908/3012 VRB03KT P6SM FEW250
     FM291600 19004KT P6SM FEW060 FEW250
     FM291900 17005KT P6SM FEW070 SCT250
     FM300000 17003KT P6SM SCT070 SCT250=



Latest METAR

872
SAUS70 KWBC 291600 RRF
MTRATL
METAR KATL 291552Z 00000KT 10SM FEW200 32/13 A3009 RMK AO2 SLP177
T03170133


USA.gov is the U.S. government's official web portal to all federal, state and local government web resources and services.